East Ellsworth, WI

4:04 PM CDT on September 01, 2014 (GMT -0500)
South Saint Paul Municipal-Fleming | Change Station
CLOSE
Current Station
Airport
Location: South St. Paul,
Elevation: 820 ft
Nearby Weather Stations

Elev 820 ft 44.86 °N, 93.03 °W | Updated 14 minutes ago

Scattered Clouds
Scattered Clouds
77 °F
Feels Like 77 °F
N
12
Wind Variable Wind from NW

Today
High -- | Low -- °F
--% Chance of Precip.
Yesterday
High -- | Low -- °F
Precip. -- in
6:32 AM 7:46 PM
Waxing Crescent, 44% visible
Pressure 29.75 in
Visibility 10.0 miles
Clouds Scattered Clouds 6000 ft
Scattered Clouds 7000 ft
Dew Point 55 °F
Humidity 47%
Rainfall 0.81 in
Snow Depth Not available.
UV 4 out of 12
Pollen 6.30 out of 12
Ozone Good
PM2.5 Good
Flu Activity Not available.
METAR KSGS 012050Z AUTO 31010KT 10SM SCT060 SCT070 25/13 A2975 RMK AO2 T02480129

More Conditions Fewer Conditions

Pressure 29.75 in
Visibility 10.0 miles
Clouds Scattered Clouds 6000 ft
Scattered Clouds 7000 ft
Dew Point 55 °F
Humidity 47%
Rainfall 0.81 in
Snow Depth Not available.
UV 4 out of 12
Pollen 6.30 out of 12
Ozone Good
PM2.5 Good
Flu Activity Not available.
METAR KSGS 012050Z AUTO 31010KT 10SM SCT060 SCT070 25/13 A2975 RMK AO2 T02480129

More Conditions Fewer Conditions

10-Day Weather Forecast

Almanac

Astronomy

Sep. 01, 2014 Rise Set
Actual Time 6:32 AM CDT 7:46 PM CDT
Civil Twilight 6:02 AM CDT 8:16 PM CDT
Nautical Twilight 5:25 AM CDT 8:52 PM CDT
Astronomical Twilight 4:47 AM CDT 9:31 PM CDT
Moon 1:35 PM CDT 11:31 PM CDT
Length of Visible Light 14h 14m
Length of Day
13h 14m
Tomorrow will be 3m 0s shorter.
Waxing Crescent, 44% of the Moon is Illuminated
Today
Waxing Crescent
Sep 2
First Quarter
Sep 8
Full
Sep 15
Last Quarter
Sep 24
New

Today's Extremes

State Highs State Lows

Community

WunderPhotos

Upload Photos

1,749,407 photos uploaded!

WunderBlogs® & News

Nearby

Air Quality

  Air Quality AQ Index Pollutant
Yesterday Good
OZONE
Yesterday Good
PM2.5
Current Good
OZONE
Current Good
PM2.5
Monday Good
OZONE
Monday Good
PM2.5
Tuesday Good
OZONE
Tuesday Good
PM2.5
Wednesday Good
OZONE
Wednesday Good
PM2.5
Thursday Good
PM2.5
Thursday Good
OZONE
Friday Good
OZONE
Friday Good
PM2.5

Snow Depth

Station Depth Elevation
No new snow has been reported.

Earthquake Activity

City Distance Mag. Time & Date
No recent earthquake activity has been reported nearby.
Minimum magnitude displayed is 2.5.

Coastal Water Temperatures

Place Temperature
No Stations Reporting

Nearby Weather Stations